Time;durP1;ratioP1;P1;durP2;ratioP2;P2;SDS_P1;SDS_P2;PMS_P1;PMS_P2;Temp;Humidity;BMP_temperature;BMP_pressure;BME280_temperature;BME280_humidity;BME280_pressure;Samples;Min_cycle;Max_cycle;Signal;HPM_P1;HPM_P2
2022/11/11 00:02:39;;;;;;;11.48;6.22;;;12.50;99.90;;;;;;4991623;28;98484;-73
2022/11/11 00:05:25;;;;;;;12.38;6.32;;;12.50;99.90;;;;;;4989987;28;98406;-73
2022/11/11 00:08:11;;;;;;;9.32;5.95;;;12.50;99.90;;;;;;4990285;28;99275;-73
2022/11/11 00:11:08;;;;;;;11.05;6.93;;;12.50;99.90;;;;;;4991818;28;99337;-73
2022/11/11 00:13:54;;;;;;;10.70;6.47;;;12.60;99.90;;;;;;4989896;28;98553;-73
2022/11/11 00:25:54;;;;;;;9.40;6.47;;;12.60;99.90;;;;;;4994928;28;99314;-73
2022/11/11 00:28:55;;;;;;;10.93;6.80;;;12.70;99.90;;;;;;4993977;28;98456;-73
2022/11/11 00:35:51;;;;;;;13.93;7.40;;;12.70;99.90;;;;;;4992916;28;98757;-73
2022/11/11 00:37:50;;;;;;;12.75;7.20;;;12.70;99.90;;;;;;4994488;28;98609;-73
2022/11/11 00:40:35;;;;;;;10.98;6.95;;;12.60;99.90;;;;;;4995768;28;98598;-73
2022/11/11 00:43:21;;;;;;;15.02;7.05;;;12.70;99.90;;;;;;4993781;28;98510;-72
2022/11/11 00:52:14;;;;;;;15.10;7.60;;;12.70;99.90;;;;;;4994396;28;98679;-73
2022/11/11 00:54:59;;;;;;;10.38;7.15;;;12.70;99.90;;;;;;4979617;28;99300;-73
2022/11/11 00:57:45;;;;;;;12.25;6.20;;;12.70;99.90;;;;;;4992717;28;98801;-73
2022/11/11 01:00:31;;;;;;;10.15;7.65;;;12.80;99.90;;;;;;5006798;28;98511;-73
2022/11/11 01:03:16;;;;;;;11.40;6.50;;;12.80;99.90;;;;;;4995183;28;98439;-73
2022/11/11 01:06:03;;;;;;;13.18;8.18;;;12.80;99.90;;;;;;4993048;28;98985;-73
2022/11/11 01:08:49;;;;;;;9.88;7.43;;;12.80;99.90;;;;;;4993368;28;98770;-73
2022/11/11 01:11:34;;;;;;;13.93;7.78;;;12.70;99.90;;;;;;4994633;28;98625;-73
2022/11/11 01:14:20;;;;;;;13.32;8.05;;;12.80;99.90;;;;;;4993315;28;97844;-73
2022/11/11 01:17:05;;;;;;;16.25;8.32;;;12.70;99.90;;;;;;4992719;28;98904;-73
2022/11/11 01:19:50;;;;;;;12.23;7.40;;;12.60;99.90;;;;;;4994313;28;98986;-73
2022/11/11 01:22:36;;;;;;;13.52;7.72;;;12.60;99.90;;;;;;4990809;28;99297;-73
2022/11/11 01:25:22;;;;;;;12.20;7.97;;;12.50;99.90;;;;;;4992599;28;98489;-73
2022/11/11 01:28:08;;;;;;;13.63;8.02;;;12.50;99.90;;;;;;5007067;28;98599;-73
2022/11/11 01:30:59;;;;;;;15.30;7.93;;;12.50;99.90;;;;;;4991728;28;98900;-72
2022/11/11 01:33:46;;;;;;;11.45;8.45;;;12.50;99.90;;;;;;4992088;28;98899;-73
2022/11/11 01:36:31;;;;;;;17.27;8.98;;;12.40;99.90;;;;;;4979705;28;98669;-73
2022/11/11 01:39:17;;;;;;;11.20;8.55;;;12.30;99.90;;;;;;4991383;28;98605;-73
2022/11/11 01:42:03;;;;;;;12.93;8.55;;;12.30;99.90;;;;;;5006129;28;98460;-73
2022/11/11 01:44:48;;;;;;;14.55;8.60;;;12.20;99.90;;;;;;4993467;28;99250;-73
2022/11/11 01:50:58;;;;;;;12.48;7.82;;;12.10;99.90;;;;;;4993309;28;99193;-72
2022/11/11 01:53:46;;;;;;;17.40;8.80;;;11.90;99.90;;;;;;4991319;28;98770;-73
2022/11/11 01:56:32;;;;;;;15.15;9.85;;;11.90;99.90;;;;;;4992204;28;99290;-73
2022/11/11 01:59:18;;;;;;;11.57;8.05;;;11.90;99.90;;;;;;4993782;28;98888;-72
2022/11/11 02:02:12;;;;;;;14.25;9.73;;;11.80;99.90;;;;;;5004567;28;99236;-72
2022/11/11 02:08:11;;;;;;;18.30;10.15;;;11.70;99.90;;;;;;4993139;28;98922;-73
2022/11/11 02:11:11;;;;;;;14.63;9.27;;;11.70;99.90;;;;;;4992404;28;98110;-72
2022/11/11 02:17:07;;;;;;;15.73;11.17;;;11.60;99.90;;;;;;4990984;28;98828;-73
2022/11/11 02:20:02;;;;;;;15.35;11.95;;;11.60;99.90;;;;;;4991369;28;99159;-72
2022/11/11 02:23:21;;;;;;;17.70;12.52;;;11.50;99.90;;;;;;4993167;28;98585;-72
2022/11/11 02:26:10;;;;;;;18.35;13.15;;;11.50;99.90;;;;;;4991992;28;98481;-72
2022/11/11 02:28:56;;;;;;;18.35;13.05;;;11.50;99.90;;;;;;4992344;28;98595;-73
2022/11/11 02:31:42;;;;;;;18.02;12.00;;;11.50;99.90;;;;;;4989869;28;98973;-73
2022/11/11 02:34:29;;;;;;;20.60;13.70;;;11.60;99.90;;;;;;4992469;28;98419;-73
2022/11/11 02:37:20;;;;;;;17.90;11.90;;;11.60;99.90;;;;;;4992668;28;98483;-73
2022/11/11 02:40:08;;;;;;;21.05;13.82;;;11.60;99.90;;;;;;4991204;28;98252;-73
2022/11/11 02:42:53;;;;;;;20.27;14.45;;;11.60;99.90;;;;;;4990944;28;98511;-72
2022/11/11 02:45:39;;;;;;;22.15;12.93;;;11.60;99.90;;;;;;4992840;28;98487;-73
2022/11/11 02:48:25;;;;;;;18.88;12.63;;;11.60;99.90;;;;;;4991081;28;99272;-73
2022/11/11 02:51:10;;;;;;;19.33;13.80;;;11.60;99.90;;;;;;4991660;28;98641;-73
2022/11/11 02:53:57;;;;;;;21.25;13.35;;;11.60;99.90;;;;;;5005358;28;98586;-72
2022/11/11 02:59:47;;;;;;;21.02;14.02;;;11.70;99.90;;;;;;4991357;28;98529;-73
2022/11/11 03:02:33;;;;;;;19.70;14.20;;;11.70;99.90;;;;;;4989934;28;98685;-73
2022/11/11 03:05:19;;;;;;;22.20;14.00;;;11.80;99.90;;;;;;4989545;28;98637;-72
2022/11/11 03:08:05;;;;;;;21.25;14.07;;;11.80;99.90;;;;;;5005549;28;97783;-73
2022/11/11 03:10:51;;;;;;;22.33;14.68;;;11.90;99.90;;;;;;4990339;28;98503;-73
2022/11/11 03:13:37;;;;;;;15.73;13.40;;;11.90;99.90;;;;;;4991085;28;98742;-73
2022/11/11 03:19:27;;;;;;;22.25;15.38;;;12.00;99.90;;;;;;4990866;28;99017;-73
2022/11/11 03:22:13;;;;;;;20.85;16.27;;;12.00;99.90;;;;;;4990139;28;98459;-73
2022/11/11 03:28:23;;;;;;;21.93;15.97;;;12.10;99.90;;;;;;4990616;28;98633;-73
2022/11/11 03:31:09;;;;;;;19.55;15.20;;;12.10;99.90;;;;;;4991737;28;98534;-72
2022/11/11 03:33:54;;;;;;;24.73;16.42;;;12.10;99.90;;;;;;4990378;28;98392;-73
2022/11/11 03:39:44;;;;;;;24.58;15.88;;;12.20;99.90;;;;;;4992184;28;98801;-73
2022/11/11 03:42:29;;;;;;;23.35;16.48;;;12.20;99.90;;;;;;4990435;28;98449;-73
2022/11/11 03:45:15;;;;;;;22.08;15.35;;;12.20;99.90;;;;;;4990427;28;99148;-72
2022/11/11 03:48:00;;;;;;;21.40;16.65;;;12.30;99.90;;;;;;4991422;28;98799;-73
2022/11/11 03:50:46;;;;;;;23.60;16.15;;;12.20;99.90;;;;;;4996000;28;98580;-73
2022/11/11 03:53:32;;;;;;;23.25;15.77;;;12.20;99.90;;;;;;4996311;28;98638;-73
2022/11/11 03:56:17;;;;;;;22.05;16.38;;;12.30;99.90;;;;;;4996667;28;98578;-72
2022/11/11 03:59:03;;;;;;;21.98;16.15;;;12.30;99.90;;;;;;4996478;28;98774;-73
2022/11/11 04:11:06;;;;;;;27.67;18.50;;;12.20;99.90;;;;;;4998150;28;98754;-72
2022/11/11 04:16:57;;;;;;;22.33;16.58;;;12.30;99.90;;;;;;4998295;28;99085;-73
2022/11/11 04:22:47;;;;;;;23.73;16.67;;;12.30;99.90;;;;;;4997209;28;98756;-73
2022/11/11 04:25:47;;;;;;;30.55;19.48;;;12.30;99.90;;;;;;4997272;28;99574;-73
2022/11/11 04:32:34;;;;;;;22.47;17.63;;;12.30;99.90;;;;;;4998007;28;98506;-73
2022/11/11 04:34:44;;;;;;;27.88;18.35;;;12.20;99.90;;;;;;4997981;28;97945;-73
2022/11/11 04:37:32;;;;;;;26.30;17.70;;;12.30;99.90;;;;;;4996943;28;98487;-73
2022/11/11 04:43:22;;;;;;;24.95;18.40;;;12.30;99.90;;;;;;4996624;28;99213;-73
2022/11/11 04:46:07;;;;;;;27.50;18.45;;;12.30;99.90;;;;;;4996365;28;98900;-73
2022/11/11 04:48:53;;;;;;;27.42;20.08;;;12.30;99.90;;;;;;4995686;28;98595;-73
2022/11/11 04:57:47;;;;;;;26.17;19.23;;;12.30;99.90;;;;;;4996389;28;98767;-73
2022/11/11 05:00:33;;;;;;;27.63;20.02;;;12.30;99.90;;;;;;4994700;28;98539;-73
2022/11/11 05:03:20;;;;;;;28.80;20.48;;;12.30;99.90;;;;;;4992251;28;97653;-73
2022/11/11 05:09:10;;;;;;;26.23;19.23;;;12.40;99.90;;;;;;4993227;28;99115;-73
2022/11/11 05:11:55;;;;;;;29.00;19.80;;;12.40;99.90;;;;;;4991722;28;99222;-73
2022/11/11 05:21:19;;;;;;;28.20;19.43;;;12.40;99.90;;;;;;4994720;28;98694;-73
2022/11/11 05:27:08;;;;;;;25.83;18.17;;;12.40;99.90;;;;;;4992035;28;98589;-73
2022/11/11 05:29:53;;;;;;;29.50;19.17;;;12.40;99.90;;;;;;4994315;28;98400;-73
2022/11/11 05:32:39;;;;;;;26.50;18.88;;;12.40;99.90;;;;;;4992024;28;98357;-73
2022/11/11 05:35:25;;;;;;;28.38;18.73;;;12.40;99.90;;;;;;5005412;28;98953;-73
2022/11/11 05:38:19;;;;;;;27.58;19.08;;;12.50;99.90;;;;;;4993948;28;99006;-73
2022/11/11 05:41:04;;;;;;;23.67;18.50;;;12.40;99.90;;;;;;4991705;28;99179;-73
2022/11/11 05:43:50;;;;;;;25.63;18.15;;;12.40;99.90;;;;;;4992482;28;98746;-73
2022/11/11 05:46:36;;;;;;;29.63;19.65;;;12.50;99.90;;;;;;4992878;28;98499;-73
2022/11/11 05:49:22;;;;;;;27.17;18.60;;;12.50;99.90;;;;;;4990810;28;98607;-73
2022/11/11 05:52:09;;;;;;;24.50;18.98;;;12.50;99.90;;;;;;4991798;28;98598;-73
2022/11/11 05:54:55;;;;;;;24.30;18.00;;;12.50;99.90;;;;;;4993447;28;98821;-73
2022/11/11 05:57:40;;;;;;;29.33;19.25;;;12.50;99.90;;;;;;4990670;28;98547;-73
2022/11/11 06:00:26;;;;;;;24.65;18.52;;;12.60;99.90;;;;;;4992782;28;97765;-73
2022/11/11 06:03:12;;;;;;;26.77;18.52;;;12.60;99.90;;;;;;4993732;28;98518;-73
2022/11/11 06:05:57;;;;;;;24.20;18.45;;;12.60;99.90;;;;;;4990083;28;98707;-73
2022/11/11 06:08:43;;;;;;;27.58;17.45;;;12.60;99.90;;;;;;5004245;28;99184;-72
2022/11/11 06:11:28;;;;;;;27.98;19.20;;;12.60;99.90;;;;;;4992300;28;98422;-73
2022/11/11 06:14:17;;;;;;;28.48;19.02;;;12.60;99.90;;;;;;4977081;28;98518;-73
2022/11/11 06:17:02;;;;;;;27.25;19.60;;;12.60;99.90;;;;;;4992238;28;99105;-73
2022/11/11 06:19:48;;;;;;;32.65;18.58;;;12.60;99.90;;;;;;4992851;28;99597;-73
2022/11/11 06:22:55;;;;;;;31.05;20.05;;;12.70;99.90;;;;;;4990212;28;99280;-73
2022/11/11 06:28:54;;;;;;;25.77;18.30;;;12.60;99.90;;;;;;4989867;28;97984;-73
2022/11/11 06:31:40;;;;;;;24.95;18.10;;;12.60;99.90;;;;;;4991373;28;98648;-73
2022/11/11 06:34:25;;;;;;;24.45;18.15;;;12.60;99.90;;;;;;4993108;28;98533;-73
2022/11/11 06:37:11;;;;;;;25.42;18.48;;;12.60;99.90;;;;;;4990722;28;99148;-73
2022/11/11 06:39:56;;;;;;;28.05;18.00;;;12.60;99.90;;;;;;4991357;28;98802;-73
2022/11/11 06:42:42;;;;;;;24.58;17.70;;;12.60;99.90;;;;;;4991069;28;98588;-73
2022/11/11 06:45:29;;;;;;;25.42;19.20;;;12.60;99.90;;;;;;4990093;28;98485;-73
2022/11/11 06:48:14;;;;;;;25.38;17.83;;;12.70;99.90;;;;;;4991738;28;98560;-73
2022/11/11 06:51:05;;;;;;;23.95;16.65;;;12.70;99.90;;;;;;4991077;28;98741;-73
2022/11/11 06:53:50;;;;;;;21.33;15.27;;;12.70;99.90;;;;;;4990012;28;98552;-73
2022/11/11 06:56:36;;;;;;;25.38;17.08;;;12.70;99.90;;;;;;4991049;28;97874;-73
2022/11/11 06:59:21;;;;;;;25.05;16.65;;;12.70;99.90;;;;;;4977480;28;98592;-73
2022/11/11 07:02:12;;;;;;;27.58;18.08;;;12.70;99.90;;;;;;4989948;28;98866;-73
2022/11/11 07:04:58;;;;;;;26.65;18.23;;;12.70;99.90;;;;;;4990804;28;99382;-73
2022/11/11 07:07:43;;;;;;;27.20;18.15;;;12.70;99.90;;;;;;4992226;28;98610;-73
2022/11/11 07:10:29;;;;;;;27.83;17.27;;;12.70;99.90;;;;;;4989245;28;99245;-73
2022/11/11 07:13:15;;;;;;;26.33;18.02;;;12.70;99.90;;;;;;4991147;28;99051;-72
2022/11/11 07:16:00;;;;;;;26.15;17.08;;;12.70;99.90;;;;;;4991886;28;99077;-73
2022/11/11 07:18:46;;;;;;;25.23;16.98;;;12.70;99.90;;;;;;4991331;28;99808;-73
2022/11/11 07:21:31;;;;;;;25.23;16.13;;;12.80;99.90;;;;;;4976195;28;98535;-73
2022/11/11 07:24:17;;;;;;;22.75;17.25;;;12.80;99.90;;;;;;5003989;28;98608;-73
2022/11/11 07:27:02;;;;;;;22.90;16.13;;;12.80;99.90;;;;;;4989878;28;99501;-73
2022/11/11 07:29:48;;;;;;;22.63;15.80;;;12.70;99.90;;;;;;4989597;28;99431;-73
2022/11/11 07:32:34;;;;;;;20.90;16.42;;;12.80;99.90;;;;;;4991295;28;100192;-73
2022/11/11 07:35:20;;;;;;;21.88;15.88;;;12.80;99.90;;;;;;4989557;28;98836;-73
2022/11/11 07:38:06;;;;;;;25.05;16.58;;;12.80;99.90;;;;;;4989667;28;98561;-73
2022/11/11 07:40:51;;;;;;;24.05;16.15;;;12.80;99.90;;;;;;4991377;28;98970;-73
2022/11/11 07:43:37;;;;;;;21.10;16.10;;;12.80;99.90;;;;;;4992355;28;98611;-73
2022/11/11 07:46:22;;;;;;;24.67;16.08;;;12.80;99.90;;;;;;4990317;28;98886;-73
2022/11/11 07:49:08;;;;;;;23.60;16.05;;;12.90;99.90;;;;;;4990575;28;98577;-73
2022/11/11 07:51:53;;;;;;;27.38;16.25;;;12.80;99.90;;;;;;4992301;28;97777;-73
2022/11/11 07:54:39;;;;;;;25.98;17.23;;;12.90;99.90;;;;;;4990051;28;98512;-73
2022/11/11 07:57:24;;;;;;;25.13;14.85;;;12.90;99.90;;;;;;4990485;28;98717;-73
2022/11/11 08:00:10;;;;;;;23.15;15.82;;;12.90;99.90;;;;;;4991458;28;99378;-73
2022/11/11 08:02:56;;;;;;;23.95;16.25;;;12.90;99.90;;;;;;4990130;28;98538;-73
2022/11/11 08:05:43;;;;;;;24.00;16.00;;;13.00;99.90;;;;;;4976009;28;98481;-73
2022/11/11 08:08:29;;;;;;;24.48;16.33;;;13.00;99.90;;;;;;4990374;28;98733;-73
2022/11/11 08:11:15;;;;;;;23.50;15.50;;;13.00;99.90;;;;;;4989834;28;98550;-73
2022/11/11 08:14:01;;;;;;;24.25;16.00;;;13.00;99.90;;;;;;4990896;28;98538;-73
2022/11/11 08:16:47;;;;;;;22.10;15.90;;;13.00;99.90;;;;;;4991591;28;98447;-73
2022/11/11 08:19:32;;;;;;;24.58;15.32;;;13.10;99.90;;;;;;5002779;28;98017;-72
2022/11/11 08:22:18;;;;;;;22.45;14.75;;;13.10;99.90;;;;;;4990231;28;98475;-73
2022/11/11 08:25:06;;;;;;;19.23;14.82;;;13.10;99.90;;;;;;4991447;28;98652;-73
2022/11/11 08:27:59;;;;;;;23.50;14.57;;;13.10;99.90;;;;;;4989059;28;99243;-73
2022/11/11 08:30:45;;;;;;;23.67;14.55;;;13.10;99.90;;;;;;4990427;28;98637;-73
2022/11/11 08:33:30;;;;;;;21.42;15.80;;;13.10;99.90;;;;;;4990549;28;98576;-73
2022/11/11 08:36:18;;;;;;;19.17;13.73;;;13.20;99.90;;;;;;4991902;28;98577;-73
2022/11/11 08:39:06;;;;;;;19.38;14.50;;;13.30;99.90;;;;;;4993911;28;99037;-73
2022/11/11 08:41:51;;;;;;;22.98;14.65;;;13.30;99.90;;;;;;4994403;28;98766;-73
2022/11/11 08:44:36;;;;;;;21.50;14.40;;;13.30;99.90;;;;;;4992715;28;98599;-73
2022/11/11 08:47:23;;;;;;;18.92;13.63;;;13.30;99.90;;;;;;5007293;28;97776;-73
2022/11/11 08:50:09;;;;;;;20.77;14.43;;;13.30;99.90;;;;;;4993832;28;98983;-73
2022/11/11 08:52:55;;;;;;;19.65;12.77;;;13.40;99.90;;;;;;4992461;28;99070;-73
2022/11/11 08:55:41;;;;;;;17.85;12.95;;;13.40;99.90;;;;;;5006181;28;99827;-73
2022/11/11 08:58:26;;;;;;;22.75;13.93;;;13.40;99.90;;;;;;4993992;28;98604;-73
2022/11/11 09:01:13;;;;;;;24.58;14.45;;;13.50;99.90;;;;;;4992878;28;98478;-73
2022/11/11 09:03:59;;;;;;;18.25;12.85;;;13.50;99.90;;;;;;5006171;28;98795;-73
2022/11/11 09:07:09;;;;;;;17.90;13.02;;;13.50;99.90;;;;;;4991544;28;99222;-73
2022/11/11 09:09:55;;;;;;;20.60;13.98;;;13.60;99.90;;;;;;4992860;28;98622;-73
2022/11/11 09:12:40;;;;;;;19.42;13.07;;;13.70;99.90;;;;;;4994069;28;98486;-73
2022/11/11 09:15:26;;;;;;;17.48;13.40;;;13.70;99.90;;;;;;5004988;28;97806;-73
2022/11/11 09:18:12;;;;;;;15.02;13.30;;;13.80;99.90;;;;;;4992666;28;98554;-73
2022/11/11 09:20:58;;;;;;;19.33;13.10;;;13.90;99.90;;;;;;4993431;28;98506;-73
2022/11/11 09:23:44;;;;;;;18.70;13.38;;;13.90;99.90;;;;;;4991712;28;99140;-73
2022/11/11 09:26:29;;;;;;;16.23;13.15;;;14.00;99.90;;;;;;5005338;28;98797;-73
2022/11/11 09:29:15;;;;;;;13.85;10.52;;;14.00;99.90;;;;;;4992994;28;98573;-73
2022/11/11 09:32:01;;;;;;;16.55;11.75;;;14.10;99.90;;;;;;4991599;28;98996;-73
2022/11/11 09:34:46;;;;;;;14.00;11.23;;;14.00;99.90;;;;;;4992423;28;98523;-73
2022/11/11 09:37:32;;;;;;;16.08;11.23;;;14.00;99.90;;;;;;4993255;28;98774;-73
2022/11/11 09:40:23;;;;;;;19.40;11.95;;;14.10;99.90;;;;;;4992805;28;98506;-73
2022/11/11 09:43:08;;;;;;;17.05;11.98;;;14.30;99.90;;;;;;4992533;28;97842;-73
2022/11/11 09:46:12;;;;;;;15.73;12.05;;;14.30;99.90;;;;;;4992184;28;98588;-73
2022/11/11 09:49:09;;;;;;;15.63;10.85;;;14.50;99.90;;;;;;4990936;28;99365;-73
2022/11/11 09:52:07;;;;;;;14.48;11.32;;;14.50;99.90;;;;;;4991984;28;99282;-73
2022/11/11 09:55:12;;;;;;;17.90;11.40;;;14.60;99.90;;;;;;4993883;28;98605;-73
2022/11/11 09:58:12;;;;;;;14.10;11.00;;;14.60;99.90;;;;;;4991941;28;98424;-73
2022/11/11 10:01:03;;;;;;;14.77;10.90;;;14.70;99.90;;;;;;4993047;28;98739;-73
2022/11/11 10:04:17;;;;;;;13.52;10.57;;;14.70;99.90;;;;;;4991344;28;98572;-73
2022/11/11 10:07:13;;;;;;;13.95;11.10;;;14.80;99.90;;;;;;4992906;28;98450;-73
2022/11/11 10:10:07;;;;;;;14.05;10.40;;;14.80;99.90;;;;;;4991478;28;98499;-73
2022/11/11 10:12:55;;;;;;;15.55;11.55;;;14.90;99.90;;;;;;4992665;28;97972;-73
2022/11/11 10:16:13;;;;;;;14.52;10.23;;;14.80;99.90;;;;;;4990718;28;98513;-73
2022/11/11 10:19:04;;;;;;;14.40;11.00;;;14.90;99.90;;;;;;4992436;28;98497;-73
2022/11/11 10:21:57;;;;;;;13.07;10.38;;;15.00;99.90;;;;;;4992892;28;99270;-73
2022/11/11 10:24:59;;;;;;;14.13;10.75;;;15.10;99.90;;;;;;4991917;28;98820;-73
2022/11/11 10:27:47;;;;;;;15.68;11.75;;;15.10;99.90;;;;;;4991667;28;99017;-73
2022/11/11 10:30:32;;;;;;;11.73;9.98;;;15.10;99.90;;;;;;4991436;28;98428;-73
2022/11/11 10:33:42;;;;;;;14.82;11.35;;;15.20;99.90;;;;;;4991701;28;98424;-73
2022/11/11 10:36:29;;;;;;;13.40;10.30;;;15.40;99.90;;;;;;4991648;28;98654;-73
2022/11/11 10:39:36;;;;;;;13.73;10.70;;;15.30;99.90;;;;;;4990839;28;98550;-73
2022/11/11 10:42:22;;;;;;;14.07;11.02;;;15.40;99.90;;;;;;5006207;28;97710;-73
2022/11/11 10:45:19;;;;;;;12.63;10.10;;;15.40;99.90;;;;;;4990563;28;98400;-73
2022/11/11 10:48:12;;;;;;;14.48;10.55;;;15.50;99.90;;;;;;4991184;28;98766;-73
2022/11/11 10:51:00;;;;;;;17.08;11.25;;;15.50;99.90;;;;;;4990860;28;99253;-74
2022/11/11 10:54:08;;;;;;;14.25;10.95;;;15.50;99.90;;;;;;4991058;28;98474;-71
2022/11/11 10:57:04;;;;;;;17.63;11.98;;;15.60;99.90;;;;;;4991695;28;98985;-71
2022/11/11 10:59:59;;;;;;;14.52;11.63;;;15.60;99.90;;;;;;5003358;28;98782;-72
2022/11/11 11:03:05;;;;;;;17.27;11.88;;;15.60;99.90;;;;;;4991479;28;98589;-72
2022/11/11 11:06:24;;;;;;;14.85;12.70;;;15.50;99.90;;;;;;4990567;28;98942;-72
2022/11/11 11:09:29;;;;;;;16.93;13.33;;;15.50;99.90;;;;;;4992117;28;98406;-72
2022/11/11 11:12:23;;;;;;;15.10;12.10;;;15.40;99.90;;;;;;4990515;28;97943;-72
2022/11/11 11:15:25;;;;;;;16.83;13.52;;;15.40;99.90;;;;;;4991033;28;98417;-72
2022/11/11 11:18:13;;;;;;;18.38;13.25;;;15.40;99.90;;;;;;5005246;28;98579;-71
2022/11/11 11:21:04;;;;;;;15.10;13.35;;;15.30;99.90;;;;;;4990467;28;99174;-72
2022/11/11 11:23:49;;;;;;;16.60;13.63;;;15.40;99.90;;;;;;4991565;28;98813;-71
2022/11/11 11:26:46;;;;;;;18.63;14.07;;;15.40;99.90;;;;;;4989378;28;98568;-71
2022/11/11 11:29:34;;;;;;;15.10;13.23;;;15.50;99.90;;;;;;4990009;28;98606;-71
2022/11/11 11:32:28;;;;;;;15.73;13.10;;;15.50;99.90;;;;;;4991940;28;98508;-71
2022/11/11 11:35:43;;;;;;;16.15;13.30;;;15.40;99.90;;;;;;4988544;28;98780;-71
2022/11/11 11:38:41;;;;;;;18.48;13.15;;;15.40;99.90;;;;;;4991325;28;98589;-72
2022/11/11 11:41:49;;;;;;;15.90;12.98;;;15.40;99.90;;;;;;4990346;28;97754;-72
2022/11/11 11:44:38;;;;;;;16.90;13.02;;;15.40;99.90;;;;;;4991356;28;98488;-71
2022/11/11 11:47:56;;;;;;;16.65;12.73;;;15.40;99.90;;;;;;4990504;28;98459;-72
2022/11/11 11:51:14;;;;;;;18.67;14.43;;;15.40;99.90;;;;;;4990070;28;99259;-71
2022/11/11 11:54:37;;;;;;;14.48;12.25;;;15.20;99.90;;;;;;5003070;28;98481;-72
2022/11/11 11:57:50;;;;;;;16.50;12.90;;;15.20;99.90;;;;;;4990067;28;98592;-71
2022/11/11 12:00:47;;;;;;;17.27;13.15;;;15.10;99.90;;;;;;4989957;28;98766;-72
2022/11/11 12:03:32;;;;;;;16.33;12.40;;;15.10;99.90;;;;;;4990755;28;98562;-72
2022/11/11 12:06:28;;;;;;;14.65;12.15;;;15.20;99.90;;;;;;4989471;28;98559;-71
2022/11/11 12:09:49;;;;;;;18.67;14.82;;;15.20;99.90;;;;;;4990523;28;98516;-71
2022/11/11 12:12:50;;;;;;;14.13;11.60;;;15.30;99.90;;;;;;4992972;28;98029;-72
2022/11/11 12:15:40;;;;;;;13.43;12.02;;;15.40;99.90;;;;;;4993915;28;98523;-72
2022/11/11 12:18:29;;;;;;;13.05;11.65;;;15.40;99.90;;;;;;4995009;28;98587;-71
2022/11/11 12:21:16;;;;;;;15.02;12.50;;;15.40;99.90;;;;;;4992064;28;100015;-72
2022/11/11 12:24:23;;;;;;;13.07;11.60;;;15.40;99.90;;;;;;4994025;28;98737;-72
2022/11/11 12:27:19;;;;;;;14.23;12.73;;;15.50;99.90;;;;;;4991790;28;98596;-72
2022/11/11 12:30:10;;;;;;;17.45;12.65;;;15.50;99.90;;;;;;4992968;28;98621;-72
2022/11/11 12:33:03;;;;;;;16.33;14.60;;;15.50;99.90;;;;;;4994633;28;98615;-71
2022/11/11 12:36:17;;;;;;;14.82;11.77;;;15.60;99.90;;;;;;4992906;28;99686;-71
2022/11/11 12:39:30;;;;;;;15.98;11.98;;;15.70;99.90;;;;;;4994328;28;99005;-72
2022/11/11 12:42:41;;;;;;;16.30;12.35;;;15.60;99.90;;;;;;4993444;28;98245;-72
2022/11/11 12:45:44;;;;;;;13.25;11.95;;;15.70;99.90;;;;;;4993484;28;98476;-72
2022/11/11 12:48:38;;;;;;;13.02;11.23;;;15.80;99.90;;;;;;5005541;28;98717;-71
2022/11/11 12:51:45;;;;;;;14.18;11.82;;;15.80;99.90;;;;;;4993465;28;99766;-72
2022/11/11 12:54:57;;;;;;;17.50;12.38;;;15.80;99.90;;;;;;4991807;28;98491;-72
2022/11/11 12:58:19;;;;;;;13.45;11.48;;;15.80;99.90;;;;;;4993197;28;98544;-72
2022/11/11 13:01:24;;;;;;;14.20;11.90;;;15.80;99.90;;;;;;4992756;28;98764;-72
2022/11/11 13:04:43;;;;;;;14.13;12.13;;;15.80;99.90;;;;;;4994094;28;99093;-72
2022/11/11 13:07:49;;;;;;;15.45;11.95;;;15.90;99.90;;;;;;4993402;28;99103;-72
2022/11/11 13:10:37;;;;;;;12.52;11.23;;;15.90;99.90;;;;;;4994163;28;98903;-72
2022/11/11 13:14:01;;;;;;;13.85;11.35;;;15.90;99.90;;;;;;4992640;28;97923;-72
2022/11/11 13:16:50;;;;;;;12.48;11.18;;;16.00;99.90;;;;;;4985636;28;99038;-71
2022/11/11 13:19:41;;;;;;;14.13;11.23;;;15.90;99.90;;;;;;4991362;28;98527;-72
2022/11/11 13:22:31;;;;;;;12.70;11.02;;;15.90;99.90;;;;;;4991872;28;100181;-72
2022/11/11 13:25:31;;;;;;;11.95;10.75;;;15.90;99.90;;;;;;4993735;28;98809;-71
2022/11/11 13:28:23;;;;;;;13.70;10.02;;;15.90;99.90;;;;;;4992598;28;98548;-72
2022/11/11 13:31:24;;;;;;;13.30;10.27;;;15.90;99.90;;;;;;4993944;28;98555;-72
2022/11/11 13:34:12;;;;;;;11.90;9.50;;;15.80;99.90;;;;;;4992703;28;98806;-72
2022/11/11 13:36:58;;;;;;;10.82;9.13;;;15.80;99.90;;;;;;4992593;28;99090;-72
2022/11/11 13:39:47;;;;;;;11.10;10.05;;;15.80;99.90;;;;;;4992950;28;99057;-72
2022/11/11 13:42:48;;;;;;;10.32;9.32;;;15.80;99.90;;;;;;4991153;28;97759;-72
2022/11/11 13:45:40;;;;;;;11.95;9.27;;;15.80;99.90;;;;;;4993637;28;98475;-72
2022/11/11 13:48:31;;;;;;;13.20;9.48;;;15.80;99.90;;;;;;4991522;28;98852;-72
2022/11/11 13:51:35;;;;;;;13.15;10.90;;;15.80;99.90;;;;;;4992637;28;99142;-72
2022/11/11 13:54:34;;;;;;;12.77;10.32;;;15.70;99.90;;;;;;4993728;28;98515;-72
2022/11/11 13:57:22;;;;;;;12.63;10.13;;;15.70;99.90;;;;;;4992489;28;98707;-71
2022/11/11 14:00:17;;;;;;;10.93;9.57;;;15.70;99.90;;;;;;4993318;28;98887;-72
2022/11/11 14:03:18;;;;;;;12.70;10.20;;;15.70;99.90;;;;;;4991717;28;98493;-71
2022/11/11 14:06:13;;;;;;;11.50;10.25;;;15.70;99.90;;;;;;4991832;28;98474;-71
2022/11/11 14:08:59;;;;;;;11.23;9.95;;;15.60;99.90;;;;;;4993482;28;98426;-72
2022/11/11 14:11:44;;;;;;;12.38;9.50;;;15.50;99.90;;;;;;4992298;28;97988;-72
2022/11/11 14:14:36;;;;;;;10.95;9.50;;;15.50;99.90;;;;;;4993156;28;98837;-72
2022/11/11 14:17:22;;;;;;;15.00;10.23;;;15.60;99.90;;;;;;4993876;28;98632;-74
2022/11/11 14:20:49;;;;;;;10.82;9.02;;;15.50;99.90;;;;;;4976481;28;99216;-72
2022/11/11 14:23:41;;;;;;;11.52;10.30;;;15.50;99.90;;;;;;4991358;28;98808;-72
2022/11/11 14:26:28;;;;;;;11.77;9.63;;;15.40;99.90;;;;;;4975575;28;98593;-72
2022/11/11 14:29:18;;;;;;;11.32;8.93;;;15.30;99.90;;;;;;4993443;28;98547;-72
2022/11/11 14:32:09;;;;;;;12.27;10.48;;;15.30;99.90;;;;;;4991614;28;98469;-72
2022/11/11 14:35:14;;;;;;;11.93;10.07;;;15.20;99.90;;;;;;4991029;28;98803;-71
2022/11/11 14:38:27;;;;;;;14.32;10.27;;;15.10;99.90;;;;;;4992633;28;98548;-71
2022/11/11 14:41:37;;;;;;;12.60;10.57;;;15.10;99.90;;;;;;5005475;28;98247;-72
2022/11/11 14:44:28;;;;;;;10.95;9.65;;;15.00;99.90;;;;;;4993286;28;98479;-71
2022/11/11 14:47:13;;;;;;;13.18;10.38;;;14.90;99.90;;;;;;4991664;28;99155;-72
2022/11/11 14:50:00;;;;;;;12.18;10.88;;;14.80;99.90;;;;;;4991325;28;99153;-72
2022/11/11 14:52:46;;;;;;;15.07;10.80;;;14.80;99.90;;;;;;4992515;28;98620;-71
2022/11/11 14:55:37;;;;;;;14.15;11.43;;;14.80;99.90;;;;;;4991077;28;99062;-71
2022/11/11 14:58:33;;;;;;;14.55;11.88;;;14.70;99.90;;;;;;4991408;28;99662;-71
2022/11/11 15:01:20;;;;;;;15.25;11.48;;;14.70;99.90;;;;;;4989901;28;98592;-71
2022/11/11 15:04:07;;;;;;;13.70;10.77;;;14.50;99.90;;;;;;4991239;28;98552;-72
2022/11/11 15:06:58;;;;;;;14.38;11.52;;;14.40;99.90;;;;;;4992141;28;98495;-71
2022/11/11 15:10:24;;;;;;;14.00;11.60;;;14.30;99.90;;;;;;4990019;28;97993;-71
2022/11/11 15:13:20;;;;;;;17.75;12.40;;;14.20;99.90;;;;;;4975690;28;98710;-72
2022/11/11 15:16:15;;;;;;;13.32;11.23;;;14.00;99.90;;;;;;5003391;28;98590;-71
2022/11/11 15:19:19;;;;;;;13.95;12.00;;;13.90;99.90;;;;;;4990084;28;99280;-71
2022/11/11 15:22:39;;;;;;;17.63;11.20;;;13.80;99.90;;;;;;4989742;28;99704;-71
2022/11/11 15:25:47;;;;;;;17.55;11.70;;;13.70;99.90;;;;;;4991244;28;98567;-72
2022/11/11 15:28:59;;;;;;;17.60;12.95;;;13.60;99.90;;;;;;4989549;28;98983;-71
2022/11/11 15:32:04;;;;;;;16.58;12.13;;;13.40;99.90;;;;;;4991120;28;98603;-72
2022/11/11 15:35:28;;;;;;;16.83;11.65;;;13.40;99.90;;;;;;4988749;28;98817;-72
2022/11/11 15:38:16;;;;;;;16.85;12.85;;;13.30;99.90;;;;;;4991473;28;98648;-71
2022/11/11 15:41:02;;;;;;;16.27;11.55;;;13.00;99.90;;;;;;4990379;28;97747;-71
2022/11/11 15:43:48;;;;;;;16.60;12.43;;;13.00;99.90;;;;;;4990994;28;98406;-71
2022/11/11 15:46:39;;;;;;;17.50;12.20;;;12.90;99.90;;;;;;4990946;28;98751;-71
2022/11/11 15:49:43;;;;;;;15.50;11.50;;;12.80;99.90;;;;;;4989258;28;99274;-71
2022/11/11 15:52:30;;;;;;;16.33;11.68;;;12.80;99.90;;;;;;4990557;28;98645;-71
2022/11/11 15:55:24;;;;;;;13.82;11.80;;;12.60;99.90;;;;;;4991326;28;99152;-71
2022/11/11 15:58:32;;;;;;;16.55;11.40;;;12.60;99.90;;;;;;4990082;28;99467;-71